createdAt,value
2018-09-23T00:00:07.965Z,2.40
2018-09-23T00:02:37.363Z,2.60
2018-09-23T00:05:07.236Z,2.60
2018-09-23T00:07:37.059Z,2.23
2018-09-23T00:10:06.755Z,2.57
2018-09-23T00:12:36.157Z,2.97
2018-09-23T00:15:05.846Z,2.97
2018-09-23T00:17:35.186Z,2.17
2018-09-23T00:20:04.927Z,3.20
2018-09-23T00:22:34.475Z,2.33
2018-09-23T00:25:03.785Z,3.23
2018-09-23T00:27:33.292Z,2.73
2018-09-23T00:30:03.207Z,3.00
2018-09-23T00:32:32.636Z,2.87
2018-09-23T00:35:02.042Z,3.00
2018-09-23T00:37:32.026Z,2.70
2018-09-23T00:40:01.404Z,2.70
2018-09-23T00:42:30.862Z,2.47
2018-09-23T00:45:00.722Z,3.57
2018-09-23T00:47:30.083Z,2.20
2018-09-23T00:49:59.480Z,2.33
2018-09-23T00:52:29.297Z,2.87
2018-09-23T00:54:58.901Z,2.60
2018-09-23T00:57:28.306Z,2.60
2018-09-23T00:59:58.237Z,3.07
2018-09-23T01:02:27.858Z,3.17
2018-09-23T01:04:57.271Z,2.43
2018-09-23T01:07:27.255Z,2.47
2018-09-23T01:09:56.880Z,2.80
2018-09-23T01:12:26.416Z,2.90
2018-09-23T01:14:56.037Z,2.93
2018-09-23T01:17:25.534Z,3.00
2018-09-23T01:19:54.966Z,2.47
2018-09-23T01:22:24.242Z,3.47
2018-09-23T01:24:54.187Z,2.63
2018-09-23T01:27:23.723Z,4.13
2018-09-23T01:29:53.578Z,2.90
2018-09-23T01:32:23.205Z,2.80
2018-09-23T01:34:53.134Z,2.97
2018-09-23T01:37:22.672Z,2.70
2018-09-23T01:39:52.033Z,2.60
2018-09-23T01:42:21.482Z,3.07
2018-09-23T01:44:51.164Z,3.30
2018-09-23T01:47:20.861Z,3.27
2018-09-23T01:49:50.798Z,3.00
2018-09-23T01:52:20.243Z,3.30
2018-09-23T01:54:49.473Z,3.20
2018-09-23T01:57:18.711Z,3.50
2018-09-23T01:59:48.454Z,3.47
2018-09-23T02:02:18.527Z,3.80
2018-09-23T02:04:48.433Z,3.00
2018-09-23T02:07:18.653Z,3.50
2018-09-23T02:09:48.177Z,3.63
2018-09-23T02:12:17.769Z,3.47
2018-09-23T02:14:47.655Z,3.47
2018-09-23T02:17:17.069Z,3.23
2018-09-23T02:19:46.488Z,3.33
2018-09-23T02:22:16.009Z,3.20
2018-09-23T02:24:45.421Z,2.43
2018-09-23T02:27:15.386Z,3.13
2018-09-23T02:29:45.188Z,3.73
2018-09-23T02:32:14.530Z,3.30
2018-09-23T02:34:43.850Z,3.07
2018-09-23T02:37:13.369Z,3.10
2018-09-23T02:39:43.050Z,2.93
2018-09-23T02:42:12.724Z,2.83
2018-09-23T02:44:42.527Z,2.60
2018-09-23T02:47:12.299Z,3.57
2018-09-23T02:49:42.275Z,2.97
2018-09-23T02:52:12.180Z,3.53
2018-09-23T02:54:41.841Z,2.90
2018-09-23T02:57:11.930Z,2.97
2018-09-23T02:59:41.611Z,3.50
2018-09-23T03:02:11.481Z,3.00
2018-09-23T03:04:40.951Z,3.53
2018-09-23T03:07:10.461Z,3.37
2018-09-23T03:09:40.301Z,3.40
2018-09-23T03:12:09.691Z,3.10
2018-09-23T03:14:39.135Z,3.53
2018-09-23T03:17:08.719Z,2.83
2018-09-23T03:19:38.238Z,3.90
2018-09-23T03:22:07.714Z,3.07
2018-09-23T03:24:36.972Z,4.00
2018-09-23T03:27:06.456Z,3.53
2018-09-23T03:29:36.391Z,3.40
2018-09-23T03:32:05.829Z,3.67
2018-09-23T03:34:35.417Z,3.73
2018-09-23T03:37:05.013Z,3.47
2018-09-23T03:39:34.396Z,3.30
2018-09-23T03:42:03.905Z,2.80
2018-09-23T03:44:33.595Z,3.67
2018-09-23T03:47:03.241Z,3.40
2018-09-23T03:49:32.622Z,3.23
2018-09-23T03:52:02.929Z,3.37
2018-09-23T03:54:32.231Z,3.67
2018-09-23T03:57:01.566Z,3.00
2018-09-23T03:59:31.272Z,3.40
2018-09-23T04:02:00.801Z,3.30
2018-09-23T04:04:30.355Z,3.40
2018-09-23T04:07:00.038Z,3.20
2018-09-23T04:09:29.517Z,3.10
2018-09-23T04:11:58.854Z,3.00
2018-09-23T04:14:28.417Z,2.97
2018-09-23T04:16:57.720Z,3.13
2018-09-23T04:19:27.110Z,3.27
2018-09-23T04:21:56.695Z,3.00
2018-09-23T04:24:26.092Z,3.77
2018-09-23T04:26:55.595Z,2.80
2018-09-23T04:29:25.332Z,2.80
2018-09-23T04:31:55.072Z,2.53
2018-09-23T04:34:24.799Z,2.50
2018-09-23T04:36:54.394Z,2.80
2018-09-23T04:39:24.235Z,2.70
2018-09-23T04:41:53.458Z,2.63
2018-09-23T04:44:23.316Z,2.53
2018-09-23T04:46:53.061Z,2.27
2018-09-23T04:49:22.662Z,2.60
2018-09-23T04:51:52.209Z,2.70
2018-09-23T04:54:21.671Z,2.40
2018-09-23T04:56:51.121Z,2.37
2018-09-23T04:59:20.894Z,2.93
2018-09-23T05:01:50.234Z,2.30
2018-09-23T05:04:19.556Z,2.50
2018-09-23T05:06:49.365Z,2.40
2018-09-23T05:09:19.018Z,2.60
2018-09-23T05:11:48.484Z,2.53
2018-09-23T05:14:18.176Z,2.40
2018-09-23T05:16:48.227Z,2.13
2018-09-23T05:19:17.708Z,2.40
2018-09-23T05:21:47.337Z,2.70
2018-09-23T05:24:16.929Z,2.10
2018-09-23T05:26:46.446Z,2.73
2018-09-23T05:29:16.437Z,1.90
2018-09-23T05:31:46.069Z,2.37
2018-09-23T05:34:15.488Z,2.17
2018-09-23T05:36:46.098Z,1.60
2018-09-23T05:39:15.495Z,2.07
2018-09-23T05:41:45.636Z,2.47
2018-09-23T05:44:15.649Z,2.00
2018-09-23T05:46:44.930Z,1.90
2018-09-23T05:49:14.688Z,2.43
2018-09-23T05:51:44.264Z,2.20
2018-09-23T05:54:13.839Z,1.70
2018-09-23T05:56:43.068Z,1.80
2018-09-23T05:59:13.379Z,2.00
2018-09-23T06:01:43.259Z,1.97
2018-09-23T06:04:13.898Z,2.13
2018-09-23T06:06:44.759Z,1.60
2018-09-23T06:09:14.250Z,2.10
2018-09-23T06:11:43.975Z,1.70
2018-09-23T06:14:13.469Z,2.00
2018-09-23T06:16:42.912Z,1.67
2018-09-23T06:19:12.449Z,1.73
2018-09-23T06:21:41.864Z,1.47
2018-09-23T06:24:11.371Z,1.40
2018-09-23T06:26:40.914Z,1.90
2018-09-23T06:29:10.213Z,1.70
2018-09-23T06:31:39.712Z,1.77
2018-09-23T06:34:09.597Z,1.57
2018-09-23T06:36:38.951Z,1.50
2018-09-23T06:39:09.181Z,1.50
2018-09-23T06:41:39.714Z,1.73
2018-09-23T06:44:09.320Z,1.60
2018-09-23T06:46:39.299Z,1.27
2018-09-23T06:49:08.892Z,1.60
2018-09-23T06:51:39.418Z,1.60
2018-09-23T06:54:08.908Z,1.60
2018-09-23T06:56:39.045Z,1.43
2018-09-23T06:59:08.755Z,1.77
2018-09-23T07:01:38.199Z,1.53
2018-09-23T07:04:08.327Z,1.77
2018-09-23T07:06:38.570Z,1.77
2018-09-23T07:09:08.422Z,1.50
2018-09-23T07:11:37.902Z,1.27
2018-09-23T07:14:07.358Z,2.40
2018-09-23T07:16:37.234Z,1.60
2018-09-23T07:19:06.520Z,1.37
2018-09-23T07:21:35.947Z,1.80
2018-09-23T07:24:05.716Z,1.50
2018-09-23T07:26:35.191Z,1.63
2018-09-23T07:29:05.158Z,1.80
2018-09-23T07:31:34.758Z,1.53
2018-09-23T07:34:04.138Z,1.17
2018-09-23T07:36:33.559Z,1.60
2018-09-23T07:39:03.174Z,1.87
2018-09-23T07:41:32.637Z,1.20
2018-09-23T07:44:01.855Z,1.30
2018-09-23T07:46:31.339Z,1.37
2018-09-23T07:49:00.874Z,1.60
2018-09-23T07:51:30.531Z,1.20
2018-09-23T07:54:00.221Z,1.40
2018-09-23T07:56:29.760Z,1.70
2018-09-23T07:58:59.386Z,1.63
2018-09-23T08:01:28.964Z,1.70
2018-09-23T08:03:58.588Z,1.50
2018-09-23T08:06:28.001Z,1.43
2018-09-23T08:08:57.729Z,1.70
2018-09-23T08:11:27.427Z,1.53
2018-09-23T08:13:57.118Z,1.20
2018-09-23T08:16:26.787Z,1.43
2018-09-23T08:18:56.502Z,1.00
2018-09-23T08:21:25.932Z,1.47
2018-09-23T08:23:55.995Z,1.50
2018-09-23T08:26:25.805Z,1.20
2018-09-23T08:28:55.395Z,1.40
2018-09-23T08:31:25.231Z,1.50
2018-09-23T08:33:55.341Z,1.20
2018-09-23T08:36:24.840Z,1.30
2018-09-23T08:38:54.671Z,1.30
2018-09-23T08:41:24.053Z,1.40
2018-09-23T08:43:53.849Z,1.30
2018-09-23T08:46:24.229Z,2.00
2018-09-23T08:48:54.322Z,1.10
2018-09-23T08:51:24.495Z,1.53
2018-09-23T08:53:54.027Z,1.63
2018-09-23T08:56:23.738Z,1.90
2018-09-23T08:58:53.174Z,1.30
2018-09-23T09:01:23.030Z,1.37
2018-09-23T09:03:52.561Z,1.30
2018-09-23T09:06:22.719Z,1.07
2018-09-23T09:08:52.809Z,1.10
2018-09-23T09:11:22.767Z,1.20
2018-09-23T09:13:52.450Z,1.47
2018-09-23T09:16:22.056Z,1.10
2018-09-23T09:18:52.056Z,1.17
2018-09-23T09:21:21.864Z,1.53
2018-09-23T09:23:51.594Z,1.50
2018-09-23T09:26:21.114Z,1.33
2018-09-23T09:28:50.678Z,1.00
2018-09-23T09:31:20.358Z,1.23
2018-09-23T09:33:50.337Z,1.60
2018-09-23T09:36:19.881Z,1.17
2018-09-23T09:38:49.580Z,1.30
2018-09-23T09:41:19.375Z,1.07
2018-09-23T09:43:49.160Z,1.30
2018-09-23T09:46:20.160Z,1.40
2018-09-23T09:48:49.681Z,1.40
2018-09-23T09:51:19.781Z,1.77
2018-09-23T09:53:49.318Z,1.40
2018-09-23T09:56:18.799Z,1.40
2018-09-23T09:58:48.627Z,1.67
2018-09-23T10:01:18.885Z,1.53
2018-09-23T10:03:48.618Z,1.20
2018-09-23T10:06:18.344Z,1.23
2018-09-23T10:08:47.821Z,1.37
2018-09-23T10:11:17.611Z,1.40
2018-09-23T10:13:47.153Z,1.30
2018-09-23T10:16:16.707Z,1.20
2018-09-23T10:18:46.488Z,1.40
2018-09-23T10:21:16.684Z,1.10
2018-09-23T10:23:46.177Z,1.03
2018-09-23T10:26:16.359Z,1.80
2018-09-23T10:28:45.936Z,1.20
2018-09-23T10:31:15.797Z,1.10
2018-09-23T10:33:45.226Z,1.37
2018-09-23T10:36:15.022Z,1.10
2018-09-23T10:38:44.695Z,1.10
2018-09-23T10:41:14.051Z,1.40
2018-09-23T10:43:43.990Z,1.20
2018-09-23T10:46:13.598Z,0.93
2018-09-23T10:48:42.874Z,1.10
2018-09-23T10:51:12.533Z,0.70
2018-09-23T10:53:41.890Z,0.90
2018-09-23T10:56:11.409Z,1.10
2018-09-23T10:58:41.031Z,1.10
2018-09-23T11:01:10.397Z,1.03
2018-09-23T11:03:39.658Z,1.20
2018-09-23T11:06:09.355Z,1.00
2018-09-23T11:08:38.825Z,1.03
2018-09-23T11:11:08.815Z,0.90
2018-09-23T11:13:38.416Z,1.17
2018-09-23T11:16:07.855Z,1.10
2018-09-23T11:18:37.338Z,1.30
2018-09-23T11:21:07.679Z,0.77
2018-09-23T11:23:36.932Z,1.10
2018-09-23T11:26:06.500Z,1.30
2018-09-23T11:28:36.024Z,1.23
2018-09-23T11:31:05.433Z,1.00
2018-09-23T11:33:34.862Z,0.93
2018-09-23T11:36:04.661Z,0.83
2018-09-23T11:38:34.023Z,1.03
2018-09-23T11:41:04.004Z,1.40
2018-09-23T11:43:33.846Z,1.03
2018-09-23T11:46:03.689Z,0.97
2018-09-23T11:48:33.058Z,1.00
2018-09-23T11:51:02.544Z,1.10
2018-09-23T11:53:31.858Z,1.00
2018-09-23T11:56:01.393Z,0.80
2018-09-23T11:58:31.273Z,1.10
2018-09-23T12:01:00.629Z,1.10
2018-09-23T12:03:30.206Z,0.70
2018-09-23T12:05:59.888Z,0.83
2018-09-23T12:08:29.442Z,1.10
2018-09-23T12:10:59.247Z,1.00
2018-09-23T12:13:28.979Z,1.03
2018-09-23T12:15:58.453Z,0.93
2018-09-23T12:18:28.335Z,0.90
2018-09-23T12:20:58.022Z,0.90
2018-09-23T12:23:27.309Z,0.83
2018-09-23T12:25:56.746Z,0.80
2018-09-23T12:28:26.203Z,1.17
2018-09-23T12:30:55.697Z,1.27
2018-09-23T12:33:25.232Z,0.80
2018-09-23T12:35:59.145Z,1.27
2018-09-23T12:38:28.626Z,1.30
2018-09-23T12:40:58.107Z,0.80
2018-09-23T12:43:27.820Z,1.03
2018-09-23T12:45:57.687Z,0.80
2018-09-23T12:48:27.345Z,0.77
2018-09-23T12:50:57.093Z,1.07
2018-09-23T12:53:26.984Z,1.30
2018-09-23T12:55:56.607Z,1.53
2018-09-23T12:58:26.223Z,1.00
2018-09-23T13:00:55.572Z,1.33
2018-09-23T13:03:25.530Z,1.20
2018-09-23T13:05:55.317Z,1.07
2018-09-23T13:08:24.983Z,1.10
2018-09-23T13:10:54.756Z,1.00
2018-09-23T13:13:24.390Z,1.00
2018-09-23T13:15:54.263Z,1.00
2018-09-23T13:18:23.843Z,1.10
2018-09-23T13:20:53.630Z,0.63
2018-09-23T13:23:23.529Z,1.00
2018-09-23T13:25:53.206Z,1.53
2018-09-23T13:28:23.035Z,0.87
2018-09-23T13:30:52.623Z,0.90
2018-09-23T13:33:23.397Z,2.03
2018-09-23T13:35:54.168Z,1.30
2018-09-23T13:38:23.790Z,1.43
2018-09-23T13:40:53.392Z,0.60
2018-09-23T13:43:23.655Z,1.63
2018-09-23T13:45:53.686Z,0.93
2018-09-23T13:48:24.894Z,1.00
2018-09-23T13:50:55.101Z,1.37
2018-09-23T13:53:25.111Z,0.90
2018-09-23T13:55:54.922Z,0.90
2018-09-23T13:58:24.706Z,0.83
2018-09-23T14:00:54.584Z,0.80
2018-09-23T14:03:24.469Z,0.80
2018-09-23T14:05:54.599Z,1.30
2018-09-23T14:08:24.713Z,0.90
2018-09-23T14:10:54.489Z,0.70
2018-09-23T14:13:24.751Z,1.00
2018-09-23T14:15:54.455Z,0.87
2018-09-23T14:18:25.688Z,1.00
2018-09-23T14:20:55.395Z,1.20
2018-09-23T14:23:25.426Z,0.73
2018-09-23T14:25:55.508Z,0.90
2018-09-23T14:28:25.679Z,1.00
2018-09-23T14:30:55.204Z,0.87
2018-09-23T14:33:25.307Z,0.80
2018-09-23T14:35:55.211Z,0.80
2018-09-23T14:38:25.900Z,0.70
2018-09-23T14:40:55.774Z,0.90
2018-09-23T14:43:26.050Z,0.90
2018-09-23T14:45:55.926Z,0.90
2018-09-23T14:48:26.325Z,0.73
2018-09-23T14:50:56.432Z,0.60
2018-09-23T14:53:26.231Z,0.90
2018-09-23T14:55:56.133Z,0.80
2018-09-23T14:58:26.391Z,0.90
2018-09-23T15:00:55.879Z,1.40
2018-09-23T15:03:25.734Z,1.13
2018-09-23T15:05:55.242Z,1.13
2018-09-23T15:08:25.119Z,1.00
2018-09-23T15:10:55.447Z,0.80
2018-09-23T15:13:26.087Z,1.00
2018-09-23T15:15:56.044Z,0.60
2018-09-23T15:18:29.222Z,1.27
2018-09-23T15:20:58.913Z,1.23
2018-09-23T15:23:28.364Z,3.93
2018-09-23T15:25:58.029Z,2.33
2018-09-23T15:28:27.583Z,1.10
2018-09-23T15:30:57.399Z,0.80
2018-09-23T15:33:27.528Z,1.00
2018-09-23T15:35:57.187Z,1.10
2018-09-23T15:38:26.980Z,1.30
2018-09-23T15:40:56.479Z,1.03
2018-09-23T15:43:26.696Z,0.80
2018-09-23T15:45:56.611Z,0.77
2018-09-23T15:48:26.451Z,0.83
2018-09-23T15:50:56.328Z,0.83
2018-09-23T15:53:26.020Z,0.83
2018-09-23T15:55:55.619Z,0.80
2018-09-23T15:58:25.498Z,0.90
2018-09-23T16:00:55.021Z,0.77
2018-09-23T16:03:25.032Z,1.00
2018-09-23T16:05:58.185Z,1.07
2018-09-23T16:08:27.993Z,1.00
2018-09-23T16:10:58.624Z,0.97
2018-09-23T16:13:28.502Z,0.70
2018-09-23T16:16:00.282Z,0.87
2018-09-23T16:18:30.832Z,1.00
2018-09-23T16:21:00.579Z,1.20
2018-09-23T16:23:30.375Z,1.20
2018-09-23T16:25:59.739Z,1.00
2018-09-23T16:28:29.275Z,0.90
2018-09-23T16:30:59.824Z,0.80
2018-09-23T16:33:29.474Z,3.60
2018-09-23T16:35:59.379Z,1.27
2018-09-23T16:38:30.235Z,1.20
2018-09-23T16:40:59.641Z,1.30
2018-09-23T16:43:29.348Z,1.40
2018-09-23T16:45:59.340Z,1.13
2018-09-23T16:48:28.770Z,1.20
2018-09-23T16:50:58.583Z,1.00
2018-09-23T16:53:28.702Z,1.00
2018-09-23T16:55:58.414Z,1.10
2018-09-23T16:58:28.698Z,0.80
2018-09-23T17:00:58.991Z,1.00
2018-09-23T17:03:28.538Z,1.10
2018-09-23T17:05:58.085Z,1.00
2018-09-23T17:08:28.277Z,0.90
2018-09-23T17:10:58.726Z,1.53
2018-09-23T17:13:28.531Z,2.87
2018-09-23T17:15:58.414Z,0.90
2018-09-23T17:18:28.187Z,1.13
2018-09-23T17:20:57.635Z,0.93
2018-09-23T17:23:27.398Z,1.00
2018-09-23T17:25:56.998Z,1.20
2018-09-23T17:28:27.287Z,1.30
2018-09-23T17:30:56.702Z,1.17
2018-09-23T17:33:26.313Z,1.07
2018-09-23T17:35:55.880Z,1.10
2018-09-23T17:38:26.957Z,1.10
2018-09-23T17:40:57.092Z,2.40
2018-09-23T17:43:27.868Z,0.70
2018-09-23T17:45:57.849Z,1.20
2018-09-23T17:48:28.076Z,0.87
2018-09-23T17:50:57.792Z,1.40
2018-09-23T17:53:27.700Z,5.90
2018-09-23T17:55:57.725Z,1.57
2018-09-23T17:58:27.502Z,1.57
2018-09-23T18:00:57.705Z,1.30
2018-09-23T18:03:27.432Z,1.60
2018-09-23T18:05:57.259Z,1.00
2018-09-23T18:08:27.192Z,1.40
2018-09-23T18:10:56.481Z,1.30
2018-09-23T18:13:25.766Z,1.27
2018-09-23T18:15:55.913Z,1.20
2018-09-23T18:18:25.766Z,2.53
2018-09-23T18:20:55.557Z,2.10
2018-09-23T18:23:25.425Z,1.67
2018-09-23T18:25:55.244Z,2.07
2018-09-23T18:28:24.731Z,2.13
2018-09-23T18:30:54.683Z,1.40
2018-09-23T18:33:24.311Z,1.77
2018-09-23T18:35:54.259Z,2.27
2018-09-23T18:38:24.349Z,1.40
2018-09-23T18:40:54.170Z,1.10
2018-09-23T18:43:24.192Z,1.67
2018-09-23T18:45:54.213Z,1.70
2018-09-23T18:48:23.935Z,1.33
2018-09-23T18:50:53.870Z,1.70
2018-09-23T18:53:24.886Z,1.20
2018-09-23T18:55:55.161Z,1.30
2018-09-23T18:58:25.108Z,1.40
2018-09-23T19:00:54.689Z,1.20
2018-09-23T19:03:24.332Z,1.10
2018-09-23T19:05:54.097Z,1.80
2018-09-23T19:08:24.646Z,2.67
2018-09-23T19:10:54.192Z,2.77
2018-09-23T19:13:28.773Z,1.80
2018-09-23T19:16:02.885Z,1.60
2018-09-23T19:18:32.542Z,1.40
2018-09-23T19:21:01.952Z,1.47
2018-09-23T19:23:32.323Z,1.60
2018-09-23T19:26:02.017Z,1.70
2018-09-23T19:28:31.475Z,1.53
2018-09-23T19:31:00.773Z,1.50
2018-09-23T19:33:30.789Z,1.50
2018-09-23T19:36:00.441Z,1.40
2018-09-23T19:38:30.109Z,1.77
2018-09-23T19:41:00.947Z,1.77
2018-09-23T19:43:30.634Z,1.60
2018-09-23T19:46:00.135Z,2.67
2018-09-23T19:48:29.939Z,2.50
2018-09-23T19:50:59.640Z,2.10
2018-09-23T19:53:29.311Z,2.13
2018-09-23T19:55:59.271Z,2.47
2018-09-23T19:58:29.025Z,3.07
2018-09-23T20:00:58.479Z,3.10
2018-09-23T20:03:28.120Z,1.90
2018-09-23T20:05:57.542Z,1.10
2018-09-23T20:08:27.185Z,1.20
2018-09-23T20:10:58.264Z,1.47
2018-09-23T20:13:27.774Z,1.53
2018-09-23T20:15:57.312Z,1.50
2018-09-23T20:18:26.923Z,1.30
2018-09-23T20:20:56.417Z,1.73
2018-09-23T20:23:26.020Z,1.53
2018-09-23T20:25:55.876Z,1.40
2018-09-23T20:28:25.602Z,1.80
2018-09-23T20:30:55.196Z,1.70
2018-09-23T20:33:24.878Z,1.53
2018-09-23T20:35:54.494Z,1.20
2018-09-23T20:38:24.904Z,1.20
2018-09-23T20:40:55.110Z,1.03
2018-09-23T20:43:25.165Z,1.57
2018-09-23T20:45:54.863Z,1.40
2018-09-23T20:48:25.813Z,1.20
2018-09-23T20:50:55.289Z,1.60
2018-09-23T20:53:25.006Z,0.73
2018-09-23T20:55:54.706Z,0.67
2018-09-23T20:58:24.429Z,0.33
2018-09-23T21:00:54.340Z,0.40
2018-09-23T21:03:25.117Z,0.30
2018-09-23T21:05:54.949Z,0.37
2018-09-23T21:08:24.511Z,0.40
2018-09-23T21:10:54.140Z,0.30
2018-09-23T21:13:24.131Z,0.37
2018-09-23T21:15:53.802Z,0.30
2018-09-23T21:18:23.225Z,0.47
2018-09-23T21:20:53.287Z,0.40
2018-09-23T21:23:22.999Z,0.50
2018-09-23T21:25:52.524Z,0.50
2018-09-23T21:28:22.455Z,0.60
2018-09-23T21:30:52.305Z,0.60
2018-09-23T21:33:22.430Z,0.50
2018-09-23T21:35:52.317Z,0.83
2018-09-23T21:38:22.249Z,0.90
2018-09-23T21:40:51.905Z,0.90
2018-09-23T21:43:21.786Z,0.77
2018-09-23T21:45:51.447Z,0.70
2018-09-23T21:48:21.327Z,0.83
2018-09-23T21:50:51.348Z,0.80
2018-09-23T21:53:20.897Z,0.77
2018-09-23T21:55:50.236Z,1.10
2018-09-23T21:58:19.688Z,0.70
2018-09-23T22:00:49.303Z,0.80
2018-09-23T22:03:18.713Z,1.07
2018-09-23T22:05:48.203Z,2.93
2018-09-23T22:08:17.777Z,9.43
2018-09-23T22:10:47.089Z,15.40
2018-09-23T22:13:16.783Z,26.03
2018-09-23T22:15:46.447Z,19.73
2018-09-23T22:18:15.597Z,10.37
2018-09-23T22:20:44.876Z,4.97
2018-09-23T22:23:14.197Z,4.47
2018-09-23T22:25:43.674Z,6.30
2018-09-23T22:28:13.201Z,4.63
2018-09-23T22:30:42.676Z,2.17
2018-09-23T22:33:12.139Z,3.90
2018-09-23T22:35:41.686Z,3.43
2018-09-23T22:38:11.123Z,4.30
2018-09-23T22:40:40.412Z,5.00
2018-09-23T22:43:10.162Z,5.30
2018-09-23T22:45:39.519Z,4.50
2018-09-23T22:48:08.918Z,3.83
2018-09-23T22:50:38.691Z,3.40
2018-09-23T22:53:08.228Z,3.00
2018-09-23T22:55:37.470Z,2.33
2018-09-23T22:58:07.073Z,10.23
2018-09-23T23:00:36.405Z,11.27
2018-09-23T23:03:05.795Z,8.20
2018-09-23T23:05:35.322Z,5.30
2018-09-23T23:08:04.853Z,6.03
2018-09-23T23:10:34.244Z,11.87
2018-09-23T23:13:03.627Z,3.50
2018-09-23T23:15:32.953Z,3.13
2018-09-23T23:18:02.474Z,5.63
2018-09-23T23:20:31.873Z,2.53
2018-09-23T23:23:01.141Z,1.80
2018-09-23T23:25:30.682Z,1.47
2018-09-23T23:28:00.376Z,1.47
2018-09-23T23:30:29.745Z,2.80
2018-09-23T23:32:59.113Z,2.63
2018-09-23T23:35:28.816Z,13.37
2018-09-23T23:37:58.218Z,7.83
2018-09-23T23:40:27.600Z,8.00
2018-09-23T23:42:57.336Z,4.47
2018-09-23T23:45:26.705Z,3.00
2018-09-23T23:47:56.002Z,2.53
2018-09-23T23:50:25.649Z,2.60
2018-09-23T23:52:55.285Z,2.50
2018-09-23T23:55:24.716Z,2.40
2018-09-23T23:57:54.602Z,3.00
